Orbital elements of COSMOS 2251 DEB
| Launched | 15 June 1993 |
| Flight ended | – |
| Launch site | Plesetsk Missile and Space Complex, Russia |
| Owner | Commonwealth of Independent States (former USSR) |
| NORAD ID | 35959 |
| Date fetched |
Epoch osculation |
Inc. [°] |
Ecc. | RA asc node [hr] |
Arg Peri. [°] |
Mean anom [°] |
Mean motion [rev/day] |
Abs. mag |
| Date fetched |
Epoch osculation |
Inc. [°] |
Ecc. | RA asc node [hr] |
Arg Peri. [°] |
Mean anom [°] |
Mean motion [rev/day] |
Abs. mag |
| 2026 May 01 17:56 | 2026 Apr 29 05:37:48 | 74.0331 | 0.00213 | 4.0226 | 112.2208 | 248.1208 | 14.34233 | – |
| 2026 Apr 30 17:56 | 2026 Apr 29 05:37:48 | 74.0331 | 0.00213 | 4.0226 | 112.2208 | 248.1208 | 14.34233 | – |
| 2026 Apr 29 17:57 | 2026 Apr 24 06:46:23 | 74.0321 | 0.00214 | 4.6271 | 122.9902 | 248.1208 | 14.34233 | – |
| 2026 Apr 28 17:56 | 2026 Apr 24 06:46:23 | 74.0321 | 0.00214 | 4.6271 | 122.9902 | 248.1208 | 14.34233 | – |
| 2026 Apr 27 17:58 | 2026 Apr 24 06:46:23 | 74.0321 | 0.00214 | 4.6271 | 122.9902 | 248.1208 | 14.34233 | – |
| 2026 Apr 26 17:58 | 2026 Apr 24 06:46:23 | 74.0321 | 0.00214 | 4.6271 | 122.9902 | 248.1208 | 14.34233 | – |
| 2026 Apr 25 17:58 | 2026 Apr 24 06:46:23 | 74.0321 | 0.00214 | 4.6271 | 122.9902 | 248.1208 | 14.34233 | – |
| 2026 Apr 24 17:59 | 2026 Apr 24 06:46:23 | 74.0321 | 0.00214 | 4.6271 | 122.9902 | 248.1208 | 14.34233 | – |
| 2026 Apr 23 17:57 | 2026 Apr 19 07:54:56 | 74.0312 | 0.00215 | 5.2316 | 133.7076 | 248.1208 | 14.34233 | – |
| 2026 Apr 22 17:57 | 2026 Apr 19 07:54:56 | 74.0312 | 0.00215 | 5.2316 | 133.7076 | 248.1208 | 14.34233 | – |
| 2026 Apr 21 17:57 | 2026 Apr 19 07:54:56 | 74.0312 | 0.00215 | 5.2316 | 133.7076 | 248.1208 | 14.34233 | – |
| 2026 Apr 20 17:57 | 2026 Apr 19 07:54:56 | 74.0312 | 0.00215 | 5.2316 | 133.7076 | 248.1208 | 14.34233 | – |
| 2026 Apr 19 17:58 | 2026 Apr 19 07:54:56 | 74.0312 | 0.00215 | 5.2316 | 133.7076 | 248.1208 | 14.34233 | – |
| 2026 Apr 18 17:56 | 2026 Apr 10 09:38:14 | 74.0299 | 0.00218 | 6.3214 | 152.8745 | 248.1208 | 14.34233 | – |
| 2026 Apr 16 17:57 | 2026 Apr 10 09:38:14 | 74.0299 | 0.00218 | 6.3214 | 152.8745 | 248.1208 | 14.34233 | – |
| 2026 Apr 14 17:57 | 2026 Apr 10 09:38:14 | 74.0299 | 0.00218 | 6.3214 | 152.8745 | 248.1208 | 14.34233 | – |
| 2026 Apr 13 17:57 | 2026 Apr 10 09:38:14 | 74.0299 | 0.00218 | 6.3214 | 152.8745 | 248.1208 | 14.34233 | – |
| 2026 Apr 12 17:57 | 2026 Apr 07 09:39:11 | 74.0298 | 0.00219 | 6.6876 | 159.2399 | 248.1208 | 14.34233 | – |
| 2026 Apr 11 17:57 | 2026 Apr 07 09:39:11 | 74.0298 | 0.00219 | 6.6876 | 159.2399 | 248.1208 | 14.34233 | – |
| 2026 Apr 10 17:58 | 2026 Apr 07 09:39:11 | 74.0298 | 0.00219 | 6.6876 | 159.2399 | 248.1208 | 14.34233 | – |
| 2026 Apr 09 18:01 | 2026 Apr 07 09:39:11 | 74.0298 | 0.00219 | 6.6876 | 159.2399 | 248.1208 | 14.34233 | – |
| 2026 Apr 08 17:57 | 2026 Apr 07 09:39:11 | 74.0298 | 0.00219 | 6.6876 | 159.2399 | 248.1208 | 14.34233 | – |
| 2026 Apr 07 17:57 | 2026 Apr 02 07:26:49 | 74.0295 | 0.00221 | 7.3092 | 169.9796 | 248.1208 | 14.34233 | – |
| 2026 Apr 06 17:57 | 2026 Apr 02 07:26:49 | 74.0295 | 0.00221 | 7.3092 | 169.9796 | 248.1208 | 14.34233 | – |
| 2026 Apr 05 17:56 | 2026 Apr 02 07:26:49 | 74.0295 | 0.00221 | 7.3092 | 169.9796 | 248.1208 | 14.34233 | – |
| 2026 Apr 04 17:57 | 2026 Apr 02 07:26:49 | 74.0295 | 0.00221 | 7.3092 | 169.9796 | 248.1208 | 14.34233 | – |